createdAt,value
2022-09-17T00:02:10.241Z,93792.03
2022-09-17T00:04:36.826Z,93792.63
2022-09-17T00:07:04.221Z,93796.28
2022-09-17T00:09:30.916Z,93798.69
2022-09-17T00:11:57.374Z,93798.50
2022-09-17T00:14:23.806Z,93790.72
2022-09-17T00:16:50.261Z,93778.75
2022-09-17T00:19:19.945Z,93782.91
2022-09-17T00:21:47.353Z,93788.59
2022-09-17T00:24:14.887Z,93780.78
2022-09-17T00:26:41.880Z,93786.44
2022-09-17T00:29:08.786Z,93783.72
2022-09-17T00:31:35.790Z,93786.81
2022-09-17T00:34:03.964Z,93804.53
2022-09-17T00:36:31.017Z,93804.06
2022-09-17T00:38:58.931Z,93813.22
2022-09-17T00:41:29.155Z,93815.66
2022-09-17T00:43:58.099Z,93812.56
2022-09-17T00:46:39.066Z,93813.47
2022-09-17T00:49:16.610Z,93817.50
2022-09-17T00:51:59.648Z,93819.63
2022-09-17T00:54:27.656Z,93818.09
2022-09-17T00:56:54.086Z,93823.31
2022-09-17T00:59:22.363Z,93832.63
2022-09-17T01:01:48.968Z,93839.66
2022-09-17T01:04:19.805Z,93836.78
2022-09-17T01:07:34.071Z,93837.06
2022-09-17T01:10:16.740Z,93839.66
2022-09-17T01:13:01.895Z,93841.22
2022-09-17T01:15:59.144Z,93845.63
2022-09-17T01:18:32.124Z,93838.41
2022-09-17T01:21:28.023Z,93840.25
2022-09-17T01:24:11.985Z,93844.31
2022-09-17T01:26:53.126Z,93853.19
2022-09-17T01:29:34.016Z,93852.19
2022-09-17T01:32:07.649Z,93861.06
2022-09-17T01:34:45.588Z,93863.97
2022-09-17T01:37:25.882Z,93858.56
2022-09-17T01:40:29.659Z,93862.22
2022-09-17T01:43:08.212Z,93868.19
2022-09-17T01:45:55.267Z,93860.69
2022-09-17T01:48:29.482Z,93866.81
2022-09-17T01:51:08.789Z,93863.47
2022-09-17T01:53:42.306Z,93865.00
2022-09-17T01:56:13.325Z,93870.41
2022-09-17T01:58:47.567Z,93870.09
2022-09-17T02:01:18.079Z,93870.59
2022-09-17T02:03:56.728Z,93853.94
2022-09-17T02:06:29.874Z,93864.53
2022-09-17T02:09:09.999Z,93856.06
2022-09-17T02:11:41.240Z,93863.56
2022-09-17T02:14:19.164Z,93857.59
2022-09-17T02:16:51.924Z,93852.09
2022-09-17T02:19:26.989Z,93849.81
2022-09-17T02:22:11.822Z,93849.50
2022-09-17T02:25:04.557Z,93845.84
2022-09-17T02:27:51.955Z,93856.25
2022-09-17T02:30:18.689Z,93850.06
2022-09-17T02:32:45.129Z,93835.47
2022-09-17T02:35:13.837Z,93850.06
2022-09-17T02:37:42.114Z,93842.09
2022-09-17T02:40:10.556Z,93851.16
2022-09-17T02:43:04.937Z,93849.13
2022-09-17T02:45:49.589Z,93841.13
2022-09-17T02:48:33.284Z,93842.97
2022-09-17T02:51:26.204Z,93840.66
2022-09-17T02:54:12.122Z,93834.13
2022-09-17T02:56:56.344Z,93832.75
2022-09-17T02:59:29.400Z,93835.94
2022-09-17T03:02:12.820Z,93831.50
2022-09-17T03:04:41.294Z,93829.19
2022-09-17T03:07:11.915Z,93830.53
2022-09-17T03:09:38.865Z,93822.38
2022-09-17T03:12:05.622Z,93831.41
2022-09-17T03:14:32.070Z,93837.66
2022-09-17T03:16:58.564Z,93838.75
2022-09-17T03:19:25.026Z,93828.63
2022-09-17T03:21:51.496Z,93824.00
2022-09-17T03:24:17.818Z,93827.84
2022-09-17T03:26:44.425Z,93825.53
2022-09-17T03:29:10.761Z,93827.94
2022-09-17T03:31:37.182Z,93834.50
2022-09-17T03:34:03.658Z,93828.34
2022-09-17T03:36:30.053Z,93831.03
2022-09-17T03:38:57.432Z,93839.88
2022-09-17T03:41:24.941Z,93833.44
2022-09-17T03:43:51.386Z,93830.06
2022-09-17T03:46:18.560Z,93827.94
2022-09-17T03:48:45.226Z,93838.16
2022-09-17T03:51:12.279Z,93835.84
2022-09-17T03:53:38.674Z,93836.72
2022-09-17T03:56:06.893Z,93847.88
2022-09-17T03:58:33.622Z,93832.56
2022-09-17T04:01:00.271Z,93836.22
2022-09-17T04:03:28.174Z,93833.34
2022-09-17T04:05:54.797Z,93842.69
2022-09-17T04:08:21.826Z,93839.31
2022-09-17T04:10:48.828Z,93840.81
2022-09-17T04:13:16.790Z,93833.34
2022-09-17T04:15:43.364Z,93840.09
2022-09-17T04:18:10.101Z,93838.53
2022-09-17T04:20:36.494Z,93838.53
2022-09-17T04:23:03.066Z,93828.91
2022-09-17T04:25:29.462Z,93826.31
2022-09-17T04:27:55.781Z,93823.22
2022-09-17T04:30:23.013Z,93828.25
2022-09-17T04:32:49.446Z,93822.53
2022-09-17T04:35:16.011Z,93822.06
2022-09-17T04:37:42.397Z,93824.66
2022-09-17T04:40:09.489Z,93818.22
2022-09-17T04:42:35.895Z,93823.72
2022-09-17T04:45:02.249Z,93823.72
2022-09-17T04:47:28.588Z,93826.88
2022-09-17T04:49:54.918Z,93827.16
2022-09-17T04:52:21.275Z,93830.03
2022-09-17T04:54:47.622Z,93822.25
2022-09-17T04:57:13.953Z,93843.31
2022-09-17T04:59:40.278Z,93841.00
2022-09-17T05:02:06.619Z,93836.59
2022-09-17T05:04:33.005Z,93842.25
2022-09-17T05:07:00.217Z,93845.31
2022-09-17T05:09:26.963Z,93843.50
2022-09-17T05:11:53.276Z,93849.78
2022-09-17T05:14:19.609Z,93850.81
2022-09-17T05:16:45.953Z,93856.00
2022-09-17T05:19:12.316Z,93859.66
2022-09-17T05:21:38.646Z,93863.13
2022-09-17T05:24:05.121Z,93858.69
2022-09-17T05:26:31.494Z,93863.69
2022-09-17T05:28:58.006Z,93865.25
2022-09-17T05:31:24.705Z,93878.22
2022-09-17T05:33:51.179Z,93866.28
2022-09-17T05:36:17.511Z,93862.91
2022-09-17T05:38:43.895Z,93866.00
2022-09-17T05:41:10.247Z,93858.97
2022-09-17T05:43:36.592Z,93864.47
2022-09-17T05:46:04.390Z,93866.06
2022-09-17T05:48:30.774Z,93868.66
2022-09-17T05:50:57.246Z,93869.75
2022-09-17T05:53:23.929Z,93871.34
2022-09-17T05:55:50.254Z,93871.34
2022-09-17T05:58:19.178Z,93871.84
2022-09-17T06:00:48.884Z,93871.34
2022-09-17T06:03:17.637Z,93879.44
2022-09-17T06:05:52.147Z,93886.94
2022-09-17T06:08:18.604Z,93882.03
2022-09-17T06:10:44.956Z,93892.13
2022-09-17T06:13:11.401Z,93898.88
2022-09-17T06:15:37.799Z,93894.72
2022-09-17T06:18:04.172Z,93900.69
2022-09-17T06:20:30.530Z,93902.50
2022-09-17T06:22:57.732Z,93915.56
2022-09-17T06:25:25.238Z,93900.56
2022-09-17T06:27:51.815Z,93909.13
2022-09-17T06:30:18.284Z,93911.44
2022-09-17T06:32:44.585Z,93920.78
2022-09-17T06:35:10.918Z,93917.88
2022-09-17T06:37:40.212Z,93923.84
2022-09-17T06:40:08.347Z,93933.97
2022-09-17T06:42:34.845Z,93928.56
2022-09-17T06:45:06.979Z,93945.69
2022-09-17T06:47:35.005Z,93942.03
2022-09-17T06:50:01.711Z,93949.03
2022-09-17T06:52:28.223Z,93953.47
2022-09-17T06:54:54.562Z,93948.84
2022-09-17T06:57:20.953Z,93955.78
2022-09-17T06:59:47.316Z,93961.75
2022-09-17T07:02:13.718Z,93966.47
2022-09-17T07:04:40.175Z,93960.19
2022-09-17T07:07:06.550Z,93955.47
2022-09-17T07:09:32.873Z,93953.66
2022-09-17T07:11:59.436Z,93953.09
2022-09-17T07:14:25.805Z,93962.06
2022-09-17T07:16:52.642Z,93971.31
2022-09-17T07:19:19.010Z,93960.28
2022-09-17T07:21:48.409Z,93969.00
2022-09-17T07:24:14.740Z,93961.13
2022-09-17T07:26:41.122Z,93968.56
2022-09-17T07:29:07.965Z,93964.53
2022-09-17T07:31:34.397Z,93969.84
2022-09-17T07:34:01.623Z,93976.00
2022-09-17T07:36:28.056Z,93976.59
2022-09-17T07:38:54.383Z,93976.66
2022-09-17T07:41:20.724Z,93969.72
2022-09-17T07:43:47.114Z,93980.75
2022-09-17T07:46:19.128Z,93977.81
2022-09-17T07:48:46.672Z,93975.03
2022-09-17T07:51:21.940Z,93993.59
2022-09-17T07:53:55.163Z,93994.69
2022-09-17T07:56:22.617Z,93987.78
2022-09-17T07:58:49.198Z,93986.03
2022-09-17T08:01:17.140Z,93991.78
2022-09-17T08:03:48.619Z,93993.59
2022-09-17T08:06:17.666Z,93991.28
2022-09-17T08:08:44.077Z,93987.06
2022-09-17T08:11:38.228Z,93994.31
2022-09-17T08:14:05.505Z,93995.91
2022-09-17T08:16:32.152Z,94002.72
2022-09-17T08:18:58.695Z,94002.16
2022-09-17T08:21:25.358Z,94002.34
2022-09-17T08:23:51.850Z,93999.72
2022-09-17T08:26:22.599Z,93998.84
2022-09-17T08:28:55.451Z,94005.00
2022-09-17T08:31:24.230Z,94005.22
2022-09-17T08:33:51.089Z,94009.84
2022-09-17T08:36:19.162Z,94003.06
2022-09-17T08:38:46.099Z,93993.97
2022-09-17T08:41:52.609Z,94012.28
2022-09-17T08:44:39.145Z,94007.09
2022-09-17T08:47:18.343Z,94003.53
2022-09-17T08:49:52.121Z,94005.91
2022-09-17T08:52:34.436Z,94016.59
2022-09-17T08:55:31.269Z,94019.97
2022-09-17T08:58:27.236Z,94012.66
2022-09-17T09:01:07.888Z,94018.84
2022-09-17T09:04:00.501Z,94023.13
2022-09-17T09:06:31.810Z,94019.00
2022-09-17T09:09:03.983Z,94011.41
2022-09-17T09:11:31.398Z,94006.19
2022-09-17T09:14:20.089Z,94029.28
2022-09-17T09:16:48.216Z,94024.06
2022-09-17T09:19:21.811Z,94023.50
2022-09-17T09:22:05.869Z,94009.25
2022-09-17T09:25:03.169Z,94022.81
2022-09-17T09:27:37.365Z,94021.34
2022-09-17T09:30:09.650Z,94017.72
2022-09-17T09:32:50.486Z,94021.09
2022-09-17T09:35:20.860Z,94024.59
2022-09-17T09:37:57.110Z,94027.28
2022-09-17T09:40:36.065Z,94019.34
2022-09-17T09:43:16.253Z,94026.69
2022-09-17T09:46:00.285Z,94030.16
2022-09-17T09:48:48.070Z,94033.63
2022-09-17T09:51:33.207Z,94037.66
2022-09-17T09:54:32.298Z,94029.84
2022-09-17T09:57:07.435Z,94043.25
2022-09-17T09:59:35.916Z,94041.25
2022-09-17T10:02:03.018Z,94043.28
2022-09-17T10:04:32.175Z,94048.78
2022-09-17T10:07:11.394Z,94034.53
2022-09-17T10:09:44.798Z,94043.06
2022-09-17T10:12:11.084Z,94042.03
2022-09-17T10:14:39.241Z,94042.13
2022-09-17T10:17:26.083Z,94044.06
2022-09-17T10:20:12.102Z,94041.59
2022-09-17T10:22:44.585Z,94042.16
2022-09-17T10:25:30.378Z,94034.69
2022-09-17T10:27:59.754Z,94046.25
2022-09-17T10:30:27.429Z,94038.81
2022-09-17T10:33:18.682Z,94040.84
2022-09-17T10:36:06.258Z,94041.97
2022-09-17T10:38:41.281Z,94049.22
2022-09-17T10:41:13.854Z,94038.38
2022-09-17T10:43:41.376Z,94041.81
2022-09-17T10:46:17.192Z,94034.28
2022-09-17T10:48:50.805Z,94031.78
2022-09-17T10:51:23.923Z,94038.19
2022-09-17T10:54:06.048Z,94041.88
2022-09-17T10:56:37.631Z,94047.41
2022-09-17T10:59:33.922Z,94049.25
2022-09-17T11:02:03.294Z,94036.78
2022-09-17T11:04:40.206Z,94041.59
2022-09-17T11:07:47.626Z,94041.97
2022-09-17T11:10:25.116Z,94044.22
2022-09-17T11:13:17.656Z,94040.44
2022-09-17T11:15:58.324Z,94041.31
2022-09-17T11:18:40.866Z,94037.53
2022-09-17T11:21:14.708Z,94033.88
2022-09-17T11:24:05.581Z,94020.50
2022-09-17T11:27:09.401Z,94026.78
2022-09-17T11:29:54.631Z,94024.91
2022-09-17T11:32:34.458Z,94017.13
2022-09-17T11:35:12.816Z,94025.16
2022-09-17T11:37:48.836Z,94013.00
2022-09-17T11:40:26.572Z,94021.94
2022-09-17T11:43:02.510Z,94012.41
2022-09-17T11:45:53.500Z,94010.25
2022-09-17T11:48:25.313Z,94005.50
2022-09-17T11:51:04.766Z,94001.03
2022-09-17T11:53:57.530Z,94000.41
2022-09-17T11:56:34.042Z,94008.69
2022-09-17T11:59:11.364Z,94000.56
2022-09-17T12:01:49.323Z,94000.34
2022-09-17T12:04:50.498Z,94004.75
2022-09-17T12:07:36.277Z,94008.13
2022-09-17T12:10:39.881Z,93999.22
2022-09-17T12:13:51.418Z,93995.84
2022-09-17T12:16:38.930Z,93999.53
2022-09-17T12:19:23.467Z,94001.47
2022-09-17T12:21:54.882Z,94006.75
2022-09-17T12:24:32.111Z,94006.81
2022-09-17T12:27:30.504Z,94030.78
2022-09-17T12:30:04.834Z,94029.19
2022-09-17T12:33:03.110Z,94035.50
2022-09-17T12:36:03.401Z,94042.16
2022-09-17T12:39:02.647Z,94052.88
2022-09-17T12:42:06.164Z,94039.66
2022-09-17T12:44:49.224Z,94047.41
2022-09-17T12:47:46.397Z,94037.97
2022-09-17T12:50:37.883Z,94030.78
2022-09-17T12:53:23.240Z,94018.06
2022-09-17T12:56:27.955Z,94005.91
2022-09-17T12:59:00.569Z,94020.34
2022-09-17T13:01:38.815Z,94005.34
2022-09-17T13:04:59.491Z,93997.75
2022-09-17T13:07:52.508Z,93994.34
2022-09-17T13:10:27.036Z,93987.53
2022-09-17T13:13:13.129Z,93993.06
2022-09-17T13:16:01.365Z,93990.00
2022-09-17T13:18:53.490Z,93986.91
2022-09-17T13:21:52.800Z,93996.00
2022-09-17T13:24:22.516Z,93996.34
2022-09-17T13:26:49.246Z,93991.16
2022-09-17T13:29:43.675Z,93999.72
2022-09-17T13:32:32.820Z,93999.34
2022-09-17T13:35:11.531Z,93983.69
2022-09-17T13:37:54.966Z,93989.50
2022-09-17T13:40:24.335Z,93983.81
2022-09-17T13:43:13.836Z,93994.13
2022-09-17T13:45:58.537Z,93992.69
2022-09-17T13:48:28.651Z,93989.47
2022-09-17T13:50:55.444Z,94009.44
2022-09-17T13:53:26.893Z,94008.25
2022-09-17T13:55:55.899Z,94016.59
2022-09-17T13:58:27.623Z,94009.28
2022-09-17T14:01:07.734Z,94020.38
2022-09-17T14:03:34.249Z,94007.53
2022-09-17T14:06:11.105Z,94019.16
2022-09-17T14:08:47.843Z,94011.66
2022-09-17T14:11:23.608Z,94006.78
2022-09-17T14:13:50.991Z,94002.34
2022-09-17T14:16:43.211Z,94023.78
2022-09-17T14:19:15.424Z,94023.31
2022-09-17T14:21:59.551Z,94027.69
2022-09-17T14:24:35.076Z,94005.59
2022-09-17T14:27:07.538Z,94022.66
2022-09-17T14:29:50.167Z,94015.84
2022-09-17T14:32:21.710Z,94030.97
2022-09-17T14:34:49.628Z,94013.25
2022-09-17T14:37:20.564Z,94015.69
2022-09-17T14:39:48.926Z,94010.00
2022-09-17T14:42:21.686Z,94006.50
2022-09-17T14:44:58.717Z,94002.16
2022-09-17T14:47:26.856Z,94012.00
2022-09-17T14:49:54.312Z,94002.88
2022-09-17T14:52:32.574Z,94000.28
2022-09-17T14:55:26.470Z,93994.09
2022-09-17T14:57:54.998Z,94002.25
2022-09-17T15:00:28.224Z,93991.19
2022-09-17T15:03:00.373Z,94006.09
2022-09-17T15:05:29.622Z,94006.38
2022-09-17T15:08:07.471Z,94004.09
2022-09-17T15:10:36.898Z,94004.19
2022-09-17T15:13:07.118Z,93999.22
2022-09-17T15:15:35.016Z,93997.38
2022-09-17T15:18:01.379Z,94000.81
2022-09-17T15:20:31.163Z,94002.59
2022-09-17T15:23:23.598Z,94007.22
2022-09-17T15:25:54.694Z,93988.50
2022-09-17T15:28:31.005Z,94004.09
2022-09-17T15:30:57.555Z,94019.97
2022-09-17T15:33:24.450Z,94016.88
2022-09-17T15:36:09.546Z,94018.44
2022-09-17T15:38:36.787Z,94019.00
2022-09-17T15:41:30.977Z,94010.66
2022-09-17T15:44:31.390Z,94016.44
2022-09-17T15:47:36.711Z,94014.50
2022-09-17T15:50:15.705Z,94020.59
2022-09-17T15:52:42.532Z,94025.41
2022-09-17T15:55:38.174Z,94009.34
2022-09-17T15:58:18.906Z,94020.25
2022-09-17T16:00:45.605Z,94014.59
2022-09-17T16:03:33.955Z,94018.69
2022-09-17T16:06:04.002Z,94023.56
2022-09-17T16:08:34.917Z,94006.22
2022-09-17T16:11:01.279Z,94008.16
2022-09-17T16:13:28.779Z,94011.44
2022-09-17T16:15:55.315Z,94015.84
2022-09-17T16:18:21.698Z,94018.63
2022-09-17T16:20:48.065Z,94003.88
2022-09-17T16:23:14.491Z,94011.91
2022-09-17T16:25:41.734Z,94005.78
2022-09-17T16:28:14.225Z,94012.28
2022-09-17T16:30:44.009Z,94022.59
2022-09-17T16:33:12.106Z,94025.34
2022-09-17T16:35:38.620Z,94019.13
2022-09-17T16:38:05.205Z,94019.41
2022-09-17T16:40:31.669Z,94024.44
2022-09-17T16:43:03.085Z,94033.13
2022-09-17T16:45:30.323Z,94040.00
2022-09-17T16:47:56.744Z,94024.75
2022-09-17T16:50:23.902Z,94037.88
2022-09-17T16:52:50.648Z,94031.00
2022-09-17T16:55:18.105Z,94028.25
2022-09-17T16:57:44.637Z,94020.81
2022-09-17T17:00:16.071Z,94007.09
2022-09-17T17:02:43.814Z,94023.31
2022-09-17T17:05:13.089Z,94023.03
2022-09-17T17:07:39.502Z,94017.72
2022-09-17T17:10:09.392Z,94024.72
2022-09-17T17:12:37.405Z,94029.81
2022-09-17T17:15:06.120Z,94024.97
2022-09-17T17:17:35.526Z,94027.09
2022-09-17T17:20:07.637Z,94022.78
2022-09-17T17:22:34.161Z,94017.38
2022-09-17T17:25:00.634Z,94016.88
2022-09-17T17:27:27.063Z,94020.53
2022-09-17T17:29:53.423Z,94025.25
2022-09-17T17:32:19.834Z,94012.81
2022-09-17T17:34:46.196Z,94018.81
2022-09-17T17:37:14.212Z,94010.50
2022-09-17T17:39:40.960Z,94012.91
2022-09-17T17:42:08.003Z,94011.38
2022-09-17T17:44:34.542Z,94022.25
2022-09-17T17:47:01.850Z,94030.34
2022-09-17T17:49:28.261Z,94026.97
2022-09-17T17:51:54.664Z,94025.13
2022-09-17T17:54:21.936Z,94022.53
2022-09-17T17:56:48.613Z,94032.06
2022-09-17T17:59:14.956Z,94034.09
2022-09-17T18:01:41.352Z,94036.69
2022-09-17T18:04:08.379Z,94036.44
2022-09-17T18:06:34.833Z,94036.44
2022-09-17T18:09:01.709Z,94049.63
2022-09-17T18:11:28.598Z,94059.44
2022-09-17T18:13:56.897Z,94070.34
2022-09-17T18:16:24.358Z,94076.03
2022-09-17T18:18:50.772Z,94083.38
2022-09-17T18:21:19.429Z,94108.09
2022-09-17T18:23:46.766Z,94114.72
2022-09-17T18:26:21.453Z,94114.66
2022-09-17T18:28:48.490Z,94125.00
2022-09-17T18:31:22.125Z,94115.31
2022-09-17T18:33:59.928Z,94106.59
2022-09-17T18:36:28.416Z,94103.59
2022-09-17T18:39:16.722Z,94102.03
2022-09-17T18:41:47.636Z,94097.13
2022-09-17T18:44:14.023Z,94100.00
2022-09-17T18:46:42.416Z,94100.38
2022-09-17T18:49:08.899Z,94108.41
2022-09-17T18:51:35.310Z,94109.97
2022-09-17T18:54:03.051Z,94117.00
2022-09-17T18:56:32.880Z,94123.22
2022-09-17T18:59:02.392Z,94128.16
2022-09-17T19:01:32.503Z,94121.63
2022-09-17T19:03:59.694Z,94133.28
2022-09-17T19:06:27.613Z,94114.81
2022-09-17T19:08:55.765Z,94115.66
2022-09-17T19:11:22.084Z,94115.88
2022-09-17T19:13:51.248Z,94114.09
2022-09-17T19:16:17.767Z,94123.66
2022-09-17T19:18:44.270Z,94121.34
2022-09-17T19:21:16.066Z,94124.72
2022-09-17T19:23:44.765Z,94130.75
2022-09-17T19:26:14.050Z,94135.47
2022-09-17T19:28:40.654Z,94126.44
2022-09-17T19:31:09.524Z,94128.50
2022-09-17T19:33:36.192Z,94130.31
2022-09-17T19:36:04.787Z,94128.00
2022-09-17T19:38:31.474Z,94125.34
2022-09-17T19:41:07.117Z,94132.56
2022-09-17T19:43:33.641Z,94130.28
2022-09-17T19:46:05.555Z,94122.47
2022-09-17T19:48:33.086Z,94126.34
2022-09-17T19:50:59.474Z,94130.19
2022-09-17T19:53:25.903Z,94146.56
2022-09-17T19:55:52.332Z,94152.50
2022-09-17T19:58:18.771Z,94148.88
2022-09-17T20:00:45.219Z,94153.03
2022-09-17T20:03:12.328Z,94157.44
2022-09-17T20:05:38.748Z,94172.25
2022-09-17T20:08:05.184Z,94151.75
2022-09-17T20:10:36.330Z,94169.94
2022-09-17T20:13:03.260Z,94166.00
2022-09-17T20:15:29.688Z,94170.69
2022-09-17T20:17:56.055Z,94166.03
2022-09-17T20:20:28.156Z,94175.41
2022-09-17T20:22:55.861Z,94172.31
2022-09-17T20:25:24.030Z,94166.91
2022-09-17T20:27:50.434Z,94173.41
2022-09-17T20:30:16.843Z,94173.47
2022-09-17T20:32:43.190Z,94187.00
2022-09-17T20:35:09.526Z,94180.81
2022-09-17T20:38:23.203Z,94174.66
2022-09-17T20:40:22.291Z,94166.41
2022-09-17T20:42:48.739Z,94169.34
2022-09-17T20:45:15.079Z,94162.94
2022-09-17T20:47:41.714Z,94167.69
2022-09-17T20:50:08.368Z,94176.84
2022-09-17T20:52:34.734Z,94168.81
2022-09-17T20:55:01.094Z,94172.00
2022-09-17T20:57:27.477Z,94180.84
2022-09-17T20:59:56.657Z,94176.78
2022-09-17T21:02:23.134Z,94181.44
2022-09-17T21:04:53.556Z,94169.03
2022-09-17T21:07:20.516Z,94177.31
2022-09-17T21:09:47.175Z,94177.88
2022-09-17T21:12:13.565Z,94184.09
2022-09-17T21:14:39.939Z,94188.25
2022-09-17T21:17:06.408Z,94180.47
2022-09-17T21:19:32.837Z,94188.25
2022-09-17T21:21:59.174Z,94187.47
2022-09-17T21:24:25.606Z,94190.59
2022-09-17T21:26:53.963Z,94202.00
2022-09-17T21:29:20.705Z,94216.25
2022-09-17T21:31:47.274Z,94217.31
2022-09-17T21:34:14.180Z,94216.81
2022-09-17T21:36:42.051Z,94220.69
2022-09-17T21:39:14.578Z,94205.38
2022-09-17T21:41:42.952Z,94211.84
2022-09-17T21:44:11.353Z,94219.38
2022-09-17T21:46:38.480Z,94216.25
2022-09-17T21:49:05.466Z,94217.31
2022-09-17T21:51:36.453Z,94224.59
2022-09-17T21:54:08.559Z,94222.00
2022-09-17T21:56:35.374Z,94216.84
2022-09-17T21:59:06.233Z,94226.72
2022-09-17T22:01:42.135Z,94221.03
2022-09-17T22:04:12.479Z,94222.59
2022-09-17T22:06:40.073Z,94232.47
2022-09-17T22:09:08.274Z,94231.97
2022-09-17T22:11:37.085Z,94226.84
2022-09-17T22:14:10.934Z,94224.53
2022-09-17T22:16:39.761Z,94222.72
2022-09-17T22:19:07.153Z,94227.41
2022-09-17T22:21:36.399Z,94226.13
2022-09-17T22:24:04.419Z,94228.19
2022-09-17T22:26:34.298Z,94226.38
2022-09-17T22:29:03.448Z,94226.66
2022-09-17T22:31:30.266Z,94231.84
2022-09-17T22:33:56.705Z,94230.84
2022-09-17T22:36:25.228Z,94233.44
2022-09-17T22:38:54.468Z,94227.00
2022-09-17T22:41:29.349Z,94217.69
2022-09-17T22:43:58.765Z,94220.53
2022-09-17T22:46:27.791Z,94221.81
2022-09-17T22:48:54.661Z,94217.66
2022-09-17T22:51:21.233Z,94229.09
2022-09-17T22:53:47.695Z,94223.91
2022-09-17T22:56:17.249Z,94224.41
2022-09-17T22:58:44.317Z,94219.47
2022-09-17T23:01:13.827Z,94222.06
2022-09-17T23:03:40.745Z,94222.28
2022-09-17T23:06:12.271Z,94229.78
2022-09-17T23:08:39.391Z,94216.56
2022-09-17T23:11:08.624Z,94224.28
2022-09-17T23:13:35.736Z,94221.66
2022-09-17T23:16:08.059Z,94224.78
2022-09-17T23:18:35.977Z,94231.97
2022-09-17T23:21:08.459Z,94231.44
2022-09-17T23:23:36.014Z,94231.91
2022-09-17T23:26:04.837Z,94228.47
2022-09-17T23:28:31.337Z,94225.63
2022-09-17T23:30:57.874Z,94209.53
2022-09-17T23:33:24.213Z,94218.81
2022-09-17T23:35:50.543Z,94216.44
2022-09-17T23:38:16.856Z,94225.78
2022-09-17T23:40:43.247Z,94222.38
2022-09-17T23:43:09.584Z,94220.28
2022-09-17T23:45:35.954Z,94219.75
2022-09-17T23:48:02.316Z,94222.09
2022-09-17T23:50:28.714Z,94227.50
2022-09-17T23:52:55.048Z,94234.53
2022-09-17T23:55:21.450Z,94236.56
2022-09-17T23:57:47.795Z,94233.69
